Time;durP1;ratioP1;P1;durP2;ratioP2;P2;SDS_P1;SDS_P2;PMS_P1;PMS_P2;Temp;Humidity;BMP_temperature;BMP_pressure;BME280_temperature;BME280_humidity;BME280_pressure;Samples;Min_cycle;Max_cycle;Signal;HPM_P1;HPM_P2
2023/10/13 00:00:36;;;;;;;12.33;11.07;;;;;;;17.43;91.29;100974.09;4879029;29;20721;-72
2023/10/13 00:03:05;;;;;;;18.80;12.47;;;;;;;17.44;91.52;100974.94;4877883;29;20258;-72
2023/10/13 00:05:33;;;;;;;20.40;11.63;;;;;;;17.44;91.31;100973.03;4878502;29;20205;-72
2023/10/13 00:08:02;;;;;;;13.17;11.87;;;;;;;17.40;91.30;100960.13;4879173;29;20220;-72
2023/10/13 00:10:33;;;;;;;16.30;11.07;;;;;;;17.33;91.93;100966.28;4878916;29;20205;-72
2023/10/13 00:13:11;;;;;;;16.00;11.30;;;;;;;17.34;91.74;100956.31;4878966;29;20189;-72
2023/10/13 00:15:44;;;;;;;12.60;10.33;;;;;;;17.26;92.54;100954.56;4878964;29;20207;-73
2023/10/13 00:18:14;;;;;;;15.97;11.17;;;;;;;17.33;91.83;100954.63;4878874;29;20182;-73
2023/10/13 00:20:48;;;;;;;10.83;10.03;;;;;;;17.28;92.16;100947.09;4878557;29;20213;-73
2023/10/13 00:23:21;;;;;;;18.17;9.67;;;;;;;17.36;92.37;100938.03;4878840;29;20224;-73
2023/10/13 00:25:56;;;;;;;15.13;10.93;;;;;;;17.31;92.26;100933.19;4878472;29;20753;-72
2023/10/13 00:28:25;;;;;;;17.63;10.07;;;;;;;17.30;92.16;100934.22;4878714;29;20196;-72
2023/10/13 00:31:04;;;;;;;17.57;10.63;;;;;;;17.35;91.50;100947.19;4878427;29;20193;-72
2023/10/13 00:33:32;;;;;;;15.47;10.33;;;;;;;17.32;92.07;100931.31;4878700;29;20268;-72
2023/10/13 00:36:00;;;;;;;10.53;9.57;;;;;;;17.28;91.71;100928.16;4878840;29;20233;-72
2023/10/13 00:38:27;;;;;;;18.47;10.43;;;;;;;17.38;92.05;100921.63;4877099;29;20197;-72
2023/10/13 00:40:54;;;;;;;14.47;9.80;;;;;;;17.38;91.86;100917.06;4878334;29;20186;-72
2023/10/13 00:48:33;;;;;;;21.43;9.63;;;;;;;17.27;92.08;100914.88;4876986;29;20225;-72
2023/10/13 00:51:07;;;;;;;18.40;10.53;;;;;;;17.29;91.88;100918.19;4878414;29;20565;-73
2023/10/13 00:53:44;;;;;;;11.70;9.90;;;;;;;17.32;91.44;100912.41;4877007;29;20589;-73
2023/10/13 00:56:20;;;;;;;15.80;10.07;;;;;;;17.32;92.07;100907.84;4878423;29;20209;-72
2023/10/13 00:58:50;;;;;;;16.53;10.43;;;;;;;17.40;91.01;100911.47;4843609;29;1059313;-73
2023/10/13 01:01:28;;;;;;;10.50;9.33;;;;;;;17.41;91.33;100910.41;4877778;29;20201;-73
2023/10/13 01:03:59;;;;;;;10.77;9.83;;;;;;;17.38;90.96;100900.00;4879561;29;20242;-73
2023/10/13 01:06:27;;;;;;;9.87;9.10;;;;;;;17.42;91.66;100904.00;4877730;29;20217;-72
2023/10/13 01:09:17;;;;;;;10.70;9.97;;;;;;;17.32;91.22;100905.13;4878864;29;20219;-72
2023/10/13 01:11:51;;;;;;;12.57;10.10;;;;;;;17.35;91.71;100903.94;4879232;29;20548;-72
2023/10/13 01:14:20;;;;;;;17.37;10.20;;;;;;;17.32;91.89;100896.19;4879472;29;20194;-72
2023/10/13 01:16:52;;;;;;;11.47;10.30;;;;;;;17.35;91.78;100888.53;4881173;29;20736;-72
2023/10/13 01:19:24;;;;;;;18.77;9.93;;;;;;;17.34;92.21;100886.03;4882473;29;20178;-72
2023/10/13 01:21:57;;;;;;;10.27;9.30;;;;;;;17.31;92.10;100884.53;4882142;29;20189;-72
2023/10/13 01:24:24;;;;;;;10.83;9.77;;;;;;;17.35;91.73;100883.13;4882620;29;20197;-72
2023/10/13 01:26:52;;;;;;;19.70;10.30;;;;;;;17.33;91.18;100889.75;4882025;29;20201;-72
2023/10/13 01:29:19;;;;;;;9.63;8.83;;;;;;;17.28;92.37;100875.97;4882013;29;20221;-72
2023/10/13 01:31:46;;;;;;;11.13;9.43;;;;;;;17.34;92.11;100869.81;4881958;29;20225;-72
2023/10/13 01:34:13;;;;;;;14.57;9.77;;;;;;;17.38;91.48;100870.28;4880701;29;20253;-73
2023/10/13 01:36:41;;;;;;;11.40;10.33;;;;;;;17.35;91.66;100875.00;4881844;29;20288;-72
2023/10/13 01:39:10;;;;;;;14.37;10.00;;;;;;;17.39;91.82;100866.56;4881904;29;20190;-73
2023/10/13 01:41:39;;;;;;;12.27;10.37;;;;;;;17.40;91.44;100862.81;4881813;29;20613;-73
2023/10/13 01:44:05;;;;;;;17.07;8.80;;;;;;;17.34;91.44;100859.84;4881737;29;20197;-73
2023/10/13 01:46:32;;;;;;;17.40;10.47;;;;;;;17.42;92.21;100852.63;4881632;29;20220;-72
2023/10/13 01:48:59;;;;;;;21.90;10.90;;;;;;;17.46;91.69;100854.75;4880368;29;20614;-72
2023/10/13 01:51:27;;;;;;;10.67;9.53;;;;;;;17.40;91.72;100843.91;4881639;29;20189;-72
2023/10/13 01:53:56;;;;;;;10.40;9.53;;;;;;;17.32;92.53;100845.69;4882114;29;20194;-72
2023/10/13 01:56:23;;;;;;;12.03;10.23;;;;;;;17.35;91.95;100839.06;4880211;29;20269;-72
2023/10/13 01:58:50;;;;;;;16.13;10.37;;;;;;;17.33;92.13;100841.97;4880102;29;20576;-73
2023/10/13 02:01:26;;;;;;;11.00;10.10;;;;;;;17.35;92.05;100831.78;4880236;29;20202;-73
2023/10/13 02:04:02;;;;;;;11.37;9.77;;;;;;;17.50;92.01;100836.28;4880206;29;20213;-73
2023/10/13 02:06:38;;;;;;;9.67;9.07;;;;;;;17.56;91.48;100825.56;4880086;29;20252;-72
2023/10/13 02:09:13;;;;;;;13.70;9.43;;;;;;;17.46;91.93;100827.75;4880034;29;20217;-72
2023/10/13 02:11:45;;;;;;;10.50;9.47;;;;;;;17.44;91.95;100820.88;4880275;29;20204;-72
2023/10/13 02:14:16;;;;;;;9.43;8.70;;;;;;;17.50;92.15;100815.50;4881491;29;20636;-72
2023/10/13 02:16:46;;;;;;;15.83;9.67;;;;;;;17.49;91.64;100821.09;4879872;29;20221;-72
2023/10/13 02:19:17;;;;;;;14.97;10.00;;;;;;;17.46;91.57;100805.28;4881683;29;20205;-73
2023/10/13 02:21:45;;;;;;;9.97;9.13;;;;;;;17.58;91.55;100810.00;4881379;29;20213;-73
2023/10/13 02:24:17;;;;;;;15.97;10.57;;;;;;;17.49;91.54;100799.47;4881298;29;20650;-73
2023/10/13 02:26:44;;;;;;;10.20;9.50;;;;;;;17.44;91.83;100805.47;4878830;29;20570;-72
2023/10/13 02:29:13;;;;;;;10.43;9.53;;;;;;;17.46;92.26;100802.56;4880863;29;20204;-73
2023/10/13 02:31:42;;;;;;;9.30;8.37;;;;;;;17.47;92.25;100799.69;4880157;29;20552;-73
2023/10/13 02:34:09;;;;;;;9.93;8.97;;;;;;;17.51;91.49;100783.91;4880850;29;20624;-73
2023/10/13 02:36:36;;;;;;;14.83;8.90;;;;;;;17.55;91.35;100774.38;4881451;29;20304;-73
2023/10/13 02:39:09;;;;;;;10.40;9.70;;;;;;;17.49;91.84;100780.53;4881289;29;20201;-73
2023/10/13 02:41:38;;;;;;;10.83;9.67;;;;;;;17.44;92.13;100783.84;4881266;29;20178;-73
2023/10/13 02:44:06;;;;;;;11.93;9.70;;;;;;;17.45;92.05;100768.47;4880670;29;20186;-73
2023/10/13 02:46:39;;;;;;;10.53;9.93;;;;;;;17.42;91.95;100767.00;4880571;29;20228;-72
2023/10/13 02:49:10;;;;;;;10.90;8.97;;;;;;;17.42;92.63;100775.09;4879317;29;20245;-72
2023/10/13 02:51:39;;;;;;;9.60;9.00;;;;;;;17.42;92.72;100764.28;4879339;29;20745;-72
2023/10/13 02:54:11;;;;;;;11.60;9.23;;;;;;;17.51;92.02;100768.53;4880783;29;20196;-72
2023/10/13 02:56:57;;;;;;;9.53;8.77;;;;;;;17.45;92.65;100766.59;4879609;29;20236;-72
2023/10/13 03:05:08;;;;;;;9.33;8.57;;;;;;;17.38;92.89;100759.47;4879059;29;20193;-72
2023/10/13 03:07:36;;;;;;;14.77;9.03;;;;;;;17.38;93.45;100748.66;4879087;29;20193;-72
2023/10/13 03:10:09;;;;;;;12.63;9.30;;;;;;;17.37;93.33;100742.41;4880151;29;20232;-73
2023/10/13 03:12:38;;;;;;;9.63;8.83;;;;;;;17.33;93.16;100739.25;4880733;29;20241;-73
2023/10/13 03:15:17;;;;;;;16.33;9.80;;;;;;;17.45;92.85;100739.56;4880614;29;20323;-72
2023/10/13 03:17:45;;;;;;;11.23;9.63;;;;;;;17.45;92.82;100746.84;4878898;29;20257;-72
2023/10/13 03:20:15;;;;;;;9.67;9.13;;;;;;;17.47;93.07;100742.09;4880585;29;20196;-72
2023/10/13 03:22:44;;;;;;;9.00;7.50;;;;;;;17.40;92.52;100733.91;4880272;29;20182;-74
2023/10/13 03:25:21;;;;;;;10.33;8.90;;;;;;;17.38;92.94;100729.75;4878711;29;20220;-72
2023/10/13 03:30:17;;;;;;;11.37;9.13;;;;;;;17.33;93.46;100723.06;4879762;29;20209;-72
2023/10/13 03:32:48;;;;;;;11.33;8.70;;;;;;;17.34;93.70;100713.09;4879838;29;20194;-72
2023/10/13 03:35:24;;;;;;;12.47;9.43;;;;;;;17.32;93.48;100718.66;4880011;29;20213;-72
2023/10/13 03:37:52;;;;;;;9.70;8.77;;;;;;;17.30;93.88;100709.09;4879694;29;20177;-72
2023/10/13 03:43:10;;;;;;;9.80;9.00;;;;;;;17.32;93.48;100701.63;4879972;29;20219;-72
2023/10/13 03:45:39;;;;;;;10.17;9.07;;;;;;;17.27;93.99;100709.50;4879783;29;20220;-73
2023/10/13 03:51:03;;;;;;;10.17;9.00;;;;;;;17.26;93.92;100695.16;4879857;29;20209;-73
2023/10/13 03:53:33;;;;;;;10.10;9.27;;;;;;;17.27;94.15;100696.00;4879890;29;20195;-73
2023/10/13 03:56:26;;;;;;;24.70;10.03;;;;;;;17.21;94.29;100689.50;4879596;29;20213;-73
2023/10/13 03:59:04;;;;;;;15.40;9.27;;;;;;;17.21;94.27;100680.53;4879496;29;20749;-73
2023/10/13 04:04:34;;;;;;;10.60;9.80;;;;;;;17.16;94.45;100675.72;4880024;29;20272;-73
2023/10/13 04:07:14;;;;;;;14.27;11.03;;;;;;;17.17;94.41;100672.00;4879448;29;20227;-73
2023/10/13 04:15:17;;;;;;;18.00;12.63;;;;;;;17.12;94.88;100639.34;4880055;29;20280;-72
2023/10/13 04:17:45;;;;;;;15.37;11.40;;;;;;;17.16;94.54;100639.78;4879328;29;20200;-73
2023/10/13 04:20:12;;;;;;;14.93;13.00;;;;;;;17.15;94.90;100638.94;4879266;29;20217;-72
2023/10/13 04:41:57;;;;;;;17.77;11.53;;;;;;;17.08;95.28;100600.25;4879714;29;20185;-73
2023/10/13 04:47:17;;;;;;;18.60;12.43;;;;;;;17.09;95.67;100593.81;4879189;29;20213;-72
2023/10/13 04:52:37;;;;;;;14.53;11.63;;;;;;;17.13;95.44;100588.84;4882685;29;20189;-73
2023/10/13 04:55:17;;;;;;;11.90;10.80;;;;;;;17.16;95.39;100586.56;4882505;29;20705;-72
2023/10/13 04:57:49;;;;;;;14.90;11.30;;;;;;;17.21;95.04;100585.97;4883172;29;20205;-72
2023/10/13 05:05:45;;;;;;;10.30;9.23;;;;;;;17.20;95.07;100579.75;4882927;29;20300;-73
2023/10/13 05:50:29;;;;;;;21.30;9.77;;;;;;;17.28;96.88;100541.75;4881902;29;20236;-74
2023/10/13 06:28:41;;;;;;;8.70;8.10;;;;;;;17.55;97.04;100514.84;4880999;29;20568;-75
2023/10/13 06:31:21;;;;;;;17.37;7.47;;;;;;;17.51;97.18;100506.31;4880915;29;20689;-75
2023/10/13 06:33:48;;;;;;;9.80;7.23;;;;;;;17.55;97.33;100517.56;4881212;29;20182;-76
2023/10/13 06:36:15;;;;;;;15.03;7.67;;;;;;;17.59;96.91;100516.16;4880807;29;20220;-75
2023/10/13 06:38:41;;;;;;;9.13;6.87;;;;;;;17.59;96.72;100516.16;4881119;29;20212;-75
2023/10/13 06:41:08;;;;;;;11.87;7.23;;;;;;;17.56;96.93;100517.38;4880786;29;20253;-75
2023/10/13 06:43:39;;;;;;;7.07;6.60;;;;;;;17.61;96.42;100516.81;4880744;29;20197;-75
2023/10/13 06:46:07;;;;;;;13.53;7.33;;;;;;;17.62;96.20;100497.66;4881418;29;20220;-75
2023/10/13 06:48:34;;;;;;;10.57;6.87;;;;;;;17.59;96.59;100498.06;4880647;29;20245;-75
2023/10/13 06:51:12;;;;;;;14.77;6.80;;;;;;;17.67;95.86;100502.44;4881351;29;20288;-75
2023/10/13 06:53:38;;;;;;;18.73;6.43;;;;;;;17.62;96.24;100504.94;4880593;29;20181;-75
2023/10/13 06:56:11;;;;;;;14.67;7.70;;;;;;;17.66;95.86;100495.38;4880755;29;20697;-74
2023/10/13 06:58:42;;;;;;;7.07;6.67;;;;;;;17.71;96.03;100498.31;4880384;29;20209;-75
2023/10/13 07:01:14;;;;;;;11.67;6.77;;;;;;;17.64;95.24;100503.69;4880930;29;20229;-75
2023/10/13 07:03:49;;;;;;;24.07;7.57;;;;;;;17.68;95.54;100514.94;4880696;29;20196;-75
2023/10/13 07:06:20;;;;;;;8.30;6.40;;;;;;;17.70;95.19;100510.16;4880512;29;20220;-74
2023/10/13 07:08:51;;;;;;;12.83;6.70;;;;;;;17.67;95.78;100508.69;4880394;29;20193;-74
2023/10/13 07:11:32;;;;;;;12.93;6.67;;;;;;;17.74;95.28;100504.13;4880504;29;20745;-75
2023/10/13 07:14:16;;;;;;;17.73;6.57;;;;;;;17.76;95.58;100507.47;4880043;29;20199;-74
2023/10/13 07:16:58;;;;;;;18.30;6.50;;;;;;;17.78;95.47;100510.81;4880638;29;20213;-74
2023/10/13 07:19:28;;;;;;;10.53;6.07;;;;;;;17.70;95.86;100505.56;4880139;29;20213;-74
2023/10/13 07:21:59;;;;;;;16.00;6.80;;;;;;;17.76;95.90;100499.38;4880594;29;20193;-74
2023/10/13 07:24:32;;;;;;;11.03;6.07;;;;;;;17.77;96.00;100501.03;4880072;29;20178;-74
2023/10/13 07:27:04;;;;;;;17.20;6.13;;;;;;;17.79;96.24;100498.13;4879922;29;20265;-74
2023/10/13 07:29:33;;;;;;;18.10;7.40;;;;;;;17.86;95.57;100503.56;4879890;29;20608;-74
2023/10/13 07:32:03;;;;;;;15.80;6.33;;;;;;;17.92;95.60;100494.59;4879791;29;20217;-74
2023/10/13 07:34:32;;;;;;;17.30;7.10;;;;;;;17.90;95.66;100494.84;4880356;29;20204;-74
2023/10/13 07:36:59;;;;;;;12.00;6.53;;;;;;;17.91;95.62;100488.38;4878640;29;20221;-74
2023/10/13 07:39:33;;;;;;;16.40;6.93;;;;;;;17.92;96.04;100490.03;4878785;29;20205;-74
2023/10/13 07:42:04;;;;;;;18.70;7.07;;;;;;;17.91;95.97;100491.06;4879790;29;20178;-74
2023/10/13 07:44:33;;;;;;;8.00;6.50;;;;;;;17.94;95.98;100490.69;4879969;29;20197;-74
2023/10/13 07:47:07;;;;;;;17.27;6.67;;;;;;;17.98;95.89;100486.53;4879611;29;20217;-74
2023/10/13 07:49:39;;;;;;;24.60;8.70;;;;;;;17.99;95.85;100479.25;4879969;29;20181;-74
2023/10/13 07:52:23;;;;;;;9.23;6.40;;;;;;;17.98;96.03;100480.28;4880088;29;20201;-74
2023/10/13 07:55:11;;;;;;;10.80;7.67;;;;;;;18.03;96.30;100484.03;4879584;29;20185;-74
2023/10/13 07:57:53;;;;;;;13.63;7.80;;;;;;;18.02;96.57;100473.41;4879749;29;20237;-74
2023/10/13 08:03:31;;;;;;;9.40;7.70;;;;;;;18.05;96.73;100473.84;4879779;29;20692;-74
2023/10/13 08:06:37;;;;;;;17.33;7.37;;;;;;;18.15;96.75;100468.03;4879474;29;20227;-74
2023/10/13 08:08:50;;;;;;;18.77;8.23;;;;;;;18.26;96.68;100465.53;4873515;29;20213;-74
2023/10/13 08:13:54;;;;;;;16.40;7.93;;;;;;;18.47;96.22;100448.22;4879786;29;20186;-74
2023/10/13 08:16:54;;;;;;;24.03;8.67;;;;;;;18.57;96.21;100434.31;4879348;29;20301;-74
2023/10/13 08:19:31;;;;;;;8.53;7.73;;;;;;;18.65;95.57;100437.63;4879947;29;20182;-74
2023/10/13 08:21:59;;;;;;;11.47;7.33;;;;;;;18.66;95.48;100436.59;4879714;29;20518;-74
2023/10/13 08:30:21;;;;;;;12.93;7.17;;;;;;;19.00;92.85;100432.75;4883369;29;20182;-74
2023/10/13 08:33:38;;;;;;;14.80;7.37;;;;;;;19.13;92.81;100435.41;4883258;29;20205;-74
2023/10/13 08:35:34;;;;;;;15.33;7.60;;;;;;;19.29;92.40;100434.09;4871068;29;20236;-73
2023/10/13 08:38:13;;;;;;;14.60;7.43;;;;;;;19.42;90.65;100431.31;4883219;29;20196;-73
2023/10/13 08:43:46;;;;;;;17.80;7.33;;;;;;;19.63;88.94;100418.50;4882920;29;20182;-73
2023/10/13 08:46:24;;;;;;;20.77;6.53;;;;;;;19.72;88.40;100412.63;4883035;29;20272;-73
2023/10/13 08:49:05;;;;;;;9.73;6.97;;;;;;;19.77;86.65;100409.25;4882814;29;20185;-71
2023/10/13 08:51:49;;;;;;;9.87;6.30;;;;;;;19.81;85.10;100396.91;4882964;29;20249;-71
2023/10/13 08:54:39;;;;;;;16.93;6.83;;;;;;;19.84;85.28;100400.00;4883180;29;20189;-71
2023/10/13 08:59:55;;;;;;;17.03;6.50;;;;;;;20.04;83.40;100378.13;4883111;29;20657;-71
2023/10/13 09:02:59;;;;;;;9.97;6.40;;;;;;;20.06;81.93;100370.63;4882783;29;20193;-71
2023/10/13 09:05:41;;;;;;;12.60;6.83;;;;;;;20.14;83.11;100373.03;4882431;29;20213;-71
2023/10/13 09:08:07;;;;;;;11.67;6.13;;;;;;;20.19;82.27;100385.94;4882445;29;20594;-71
2023/10/13 09:10:44;;;;;;;16.73;6.60;;;;;;;20.21;80.75;100367.53;4882529;29;20202;-71
2023/10/13 09:13:20;;;;;;;12.90;6.80;;;;;;;20.33;81.41;100361.19;4882629;29;20225;-71
2023/10/13 09:15:59;;;;;;;20.77;6.47;;;;;;;20.42;79.36;100369.88;4882247;29;20767;-71
2023/10/13 09:18:42;;;;;;;14.20;6.20;;;;;;;20.49;77.83;100363.34;4882479;29;20717;-71
2023/10/13 09:24:15;;;;;;;15.63;6.10;;;;;;;20.58;76.89;100365.75;4882190;29;20193;-71
2023/10/13 09:26:41;;;;;;;11.43;6.90;;;;;;;20.48;76.15;100350.81;4882322;29;20792;-71
2023/10/13 09:29:18;;;;;;;19.17;6.30;;;;;;;20.48;75.46;100349.97;4882067;29;20197;-70
2023/10/13 09:31:48;;;;;;;10.50;6.07;;;;;;;20.58;75.59;100336.69;4881954;29;20628;-70
2023/10/13 09:34:23;;;;;;;9.53;6.13;;;;;;;20.64;76.02;100345.81;4882277;29;20186;-71
2023/10/13 09:36:55;;;;;;;8.63;5.50;;;;;;;20.70;76.02;100351.19;4881333;29;20220;-71
2023/10/13 09:39:34;;;;;;;13.40;6.17;;;;;;;20.80;74.77;100342.50;4882429;29;20196;-71
2023/10/13 09:42:01;;;;;;;20.23;6.07;;;;;;;20.93;74.11;100335.00;4882171;29;20177;-71
2023/10/13 09:44:31;;;;;;;17.57;7.30;;;;;;;21.04;73.62;100330.72;4881867;29;20197;-71
2023/10/13 09:47:07;;;;;;;18.40;6.13;;;;;;;21.11;73.11;100331.44;4882302;29;20241;-71
2023/10/13 09:49:45;;;;;;;18.87;6.80;;;;;;;21.18;72.62;100329.47;4881729;29;20694;-71
2023/10/13 09:52:19;;;;;;;15.93;6.63;;;;;;;21.30;70.89;100332.28;4881885;29;20587;-70
2023/10/13 09:55:26;;;;;;;17.50;7.27;;;;;;;21.32;71.10;100339.13;4881827;29;20209;-71
2023/10/13 09:58:09;;;;;;;22.73;6.57;;;;;;;21.31;71.04;100323.03;4870830;29;20303;-71
2023/10/13 10:00:46;;;;;;;8.50;6.30;;;;;;;21.26;71.93;100314.75;4882324;29;20192;-71
2023/10/13 10:03:39;;;;;;;15.63;7.43;;;;;;;21.33;70.88;100329.06;4881764;29;20528;-71
2023/10/13 10:06:13;;;;;;;7.63;6.47;;;;;;;21.36;70.89;100328.59;4881513;29;20213;-70
2023/10/13 10:08:50;;;;;;;11.77;6.77;;;;;;;21.46;70.03;100314.44;4880194;29;20189;-70
2023/10/13 10:11:26;;;;;;;20.00;8.57;;;;;;;21.50;70.22;100321.91;4881544;29;20208;-71
2023/10/13 10:14:18;;;;;;;12.20;7.60;;;;;;;21.52;69.14;100314.34;4881250;29;20253;-71
2023/10/13 10:17:07;;;;;;;13.27;6.60;;;;;;;21.55;69.88;100310.34;4862291;29;20229;-71
2023/10/13 10:19:55;;;;;;;10.65;7.90;;;;;;;21.63;69.27;100304.56;4881464;29;20181;-71
2023/10/13 10:22:35;;;;;;;14.05;8.07;;;;;;;21.69;69.43;100298.16;4881385;29;20178;-71
2023/10/13 10:25:06;;;;;;;14.77;6.53;;;;;;;21.64;68.77;100298.06;4881518;29;20339;-71
2023/10/13 10:27:33;;;;;;;9.20;6.13;;;;;;;21.62;69.45;100292.84;4881023;29;20204;-71
2023/10/13 10:30:03;;;;;;;10.77;6.78;;;;;;;21.61;69.45;100271.28;4881741;29;20283;-71
2023/10/13 10:32:41;;;;;;;12.88;6.90;;;;;;;21.66;68.83;100285.03;4881234;29;20213;-70
2023/10/13 10:35:14;;;;;;;15.70;6.80;;;;;;;21.69;69.53;100299.00;4881316;29;20287;-71
2023/10/13 10:37:46;;;;;;;19.63;7.25;;;;;;;21.68;69.83;100296.53;4881480;29;20273;-71
2023/10/13 10:40:32;;;;;;;17.50;7.13;;;;;;;21.65;69.99;100300.53;4880898;29;20189;-71
2023/10/13 10:43:08;;;;;;;13.75;7.38;;;;;;;21.55;69.83;100294.84;4881101;29;20238;-70
2023/10/13 10:45:59;;;;;;;18.60;7.68;;;;;;;21.46;70.93;100289.97;4880649;29;20261;-70
2023/10/13 10:48:31;;;;;;;14.18;7.78;;;;;;;21.41;69.98;100290.66;4880158;29;20593;-70
2023/10/13 10:51:06;;;;;;;13.10;6.95;;;;;;;21.50;70.46;100294.72;4880873;29;20205;-71
2023/10/13 10:53:37;;;;;;;12.35;7.97;;;;;;;21.50;70.92;100278.41;4880587;29;20638;-71
2023/10/13 10:56:19;;;;;;;13.90;7.63;;;;;;;21.53;71.29;100274.38;4881017;29;20217;-70
2023/10/13 10:58:54;;;;;;;23.10;7.47;;;;;;;21.62;70.90;100262.91;4880408;29;20205;-71
2023/10/13 11:01:33;;;;;;;13.27;7.13;;;;;;;21.68;71.10;100266.59;4880683;29;20216;-71
2023/10/13 11:04:14;;;;;;;27.45;9.15;;;;;;;21.78;70.28;100264.94;4880381;29;20181;-71
2023/10/13 11:06:49;;;;;;;14.38;8.02;;;;;;;21.83;69.57;100259.63;4880718;29;20723;-71
2023/10/13 11:11:56;;;;;;;21.77;7.68;;;;;;;21.95;68.79;100251.47;4880461;29;20239;-71
2023/10/13 11:14:25;;;;;;;10.65;7.35;;;;;;;21.87;66.98;100243.63;4880461;29;20602;-70
2023/10/13 11:17:00;;;;;;;11.75;7.30;;;;;;;21.92;68.59;100242.94;4880066;29;20232;-70
2023/10/13 11:19:38;;;;;;;13.77;7.05;;;;;;;21.87;69.12;100239.03;4880698;29;20242;-70
2023/10/13 11:25:12;;;;;;;9.52;7.63;;;;;;;21.90;67.16;100231.47;4880513;29;20705;-70
2023/10/13 11:30:14;;;;;;;10.65;7.90;;;;;;;22.09;67.00;100214.78;4880204;29;20594;-70
2023/10/13 11:32:42;;;;;;;27.25;9.40;;;;;;;22.31;66.49;100218.53;4880346;29;20300;-70
2023/10/13 11:35:25;;;;;;;25.73;7.85;;;;;;;22.48;65.94;100207.69;4879800;29;20228;-70
2023/10/13 11:38:03;;;;;;;10.40;7.35;;;;;;;22.55;64.32;100211.09;4880162;29;20193;-70
2023/10/13 11:43:24;;;;;;;10.32;7.22;;;;;;;22.72;64.20;100198.38;4858414;29;20217;-70
2023/10/13 11:46:55;;;;;;;16.98;7.32;;;;;;;22.85;62.77;100186.38;4879663;29;20209;-70
2023/10/13 11:48:46;;;;;;;18.17;7.80;;;;;;;23.00;62.30;100189.34;4877662;29;20583;-70
2023/10/13 11:51:23;;;;;;;26.60;8.57;;;;;;;23.09;62.50;100174.25;4879505;29;20217;-70
2023/10/13 11:53:53;;;;;;;16.27;7.97;;;;;;;23.19;62.37;100168.97;4879948;29;20195;-71
2023/10/13 11:56:20;;;;;;;18.60;8.60;;;;;;;23.37;60.57;100167.91;4880080;29;20303;-70
2023/10/13 11:58:47;;;;;;;15.75;7.28;;;;;;;23.51;61.38;100157.47;4879410;29;20240;-70
2023/10/13 12:06:35;;;;;;;21.50;8.02;;;;;;;23.44;60.17;100156.84;4879650;29;20237;-72
2023/10/13 12:11:50;;;;;;;20.30;7.80;;;;;;;23.51;58.32;100154.75;4879695;29;20205;-72
2023/10/13 12:17:10;;;;;;;19.15;7.90;;;;;;;23.42;57.99;100151.63;4879639;29;20221;-72
2023/10/13 12:19:38;;;;;;;9.77;7.03;;;;;;;23.35;57.91;100152.84;4879669;29;20181;-72
2023/10/13 12:22:08;;;;;;;21.70;6.93;;;;;;;23.36;57.33;100154.50;4879514;29;20193;-72
2023/10/13 12:27:02;;;;;;;23.85;6.88;;;;;;;23.37;58.31;100150.69;4879273;29;20217;-72
2023/10/13 12:29:29;;;;;;;8.80;7.30;;;;;;;23.40;57.15;100147.47;4879821;29;20250;-72
2023/10/13 12:32:08;;;;;;;27.65;7.55;;;;;;;23.49;56.70;100138.66;4879386;29;20217;-72
2023/10/13 12:51:20;;;;;;;21.08;6.93;;;;;;;23.48;57.00;100108.88;4879267;29;20194;-72
2023/10/13 12:53:52;;;;;;;25.85;7.30;;;;;;;23.45;55.74;100112.94;4879090;29;20184;-72
2023/10/13 12:56:26;;;;;;;33.15;7.60;;;;;;;23.39;55.87;100105.72;4879010;29;20269;-72
2023/10/13 12:58:53;;;;;;;30.05;8.98;;;;;;;23.39;56.10;100110.34;4879049;29;20204;-72
2023/10/13 13:01:32;;;;;;;19.20;7.88;;;;;;;23.45;56.17;100115.66;4879294;29;20224;-72
2023/10/13 13:04:03;;;;;;;35.45;7.38;;;;;;;23.43;56.01;100120.53;4879469;29;20280;-72
2023/10/13 13:06:30;;;;;;;21.75;7.85;;;;;;;23.40;55.83;100129.19;4879223;29;20221;-72
2023/10/13 13:08:58;;;;;;;24.08;8.38;;;;;;;23.49;55.33;100116.81;4878942;29;20209;-72
2023/10/13 13:11:28;;;;;;;30.27;7.43;;;;;;;23.46;55.98;100128.25;4880401;29;20661;-72
2023/10/13 13:13:55;;;;;;;20.42;7.50;;;;;;;23.42;54.95;100118.88;4882554;29;20185;-72
2023/10/13 13:16:24;;;;;;;20.65;7.47;;;;;;;23.44;54.78;100118.63;4882239;29;20636;-72
2023/10/13 13:18:51;;;;;;;32.80;8.40;;;;;;;23.36;55.17;100119.03;4882543;29;20193;-72
2023/10/13 13:21:23;;;;;;;27.60;7.80;;;;;;;23.29;56.09;100119.22;4882622;29;20237;-72
2023/10/13 13:23:50;;;;;;;33.42;9.13;;;;;;;23.25;55.99;100115.34;4882487;29;20178;-72
2023/10/13 13:26:17;;;;;;;32.83;8.40;;;;;;;23.29;57.05;100119.22;4882035;29;20686;-72
2023/10/13 13:28:45;;;;;;;34.70;7.82;;;;;;;23.25;56.29;100109.06;4882062;29;20201;-72
2023/10/13 13:31:15;;;;;;;20.42;8.88;;;;;;;23.36;55.16;100108.94;4881954;29;20653;-71
2023/10/13 13:33:44;;;;;;;34.75;8.13;;;;;;;23.44;56.28;100113.19;4882281;29;20241;-72
2023/10/13 13:36:15;;;;;;;45.38;8.10;;;;;;;23.42;54.91;100102.50;4881860;29;20217;-72
2023/10/13 13:38:46;;;;;;;29.33;7.95;;;;;;;23.37;55.23;100096.13;4882113;29;20178;-71
2023/10/13 13:41:16;;;;;;;23.85;7.78;;;;;;;23.35;54.24;100099.09;4882372;29;20241;-72
2023/10/13 13:46:18;;;;;;;45.78;8.25;;;;;;;23.39;54.37;100102.16;4881722;29;20732;-72
2023/10/13 13:48:47;;;;;;;18.65;7.68;;;;;;;23.36;54.31;100100.75;4881709;29;20190;-71
2023/10/13 13:51:14;;;;;;;29.50;7.45;;;;;;;23.35;54.68;100092.81;4881883;29;20201;-72
2023/10/13 13:53:45;;;;;;;22.30;8.38;;;;;;;23.27;55.65;100094.06;4881830;29;20228;-71
2023/10/13 13:56:15;;;;;;;22.77;7.43;;;;;;;23.28;53.67;100092.19;4881549;29;20213;-72
2023/10/13 13:58:43;;;;;;;37.65;7.85;;;;;;;23.28;53.72;100109.38;4881623;29;20241;-72
2023/10/13 14:01:15;;;;;;;34.67;8.10;;;;;;;23.16;54.12;100103.19;4881896;29;20213;-71
2023/10/13 14:03:45;;;;;;;33.97;7.68;;;;;;;23.19;55.62;100091.78;4881484;29;20607;-71
2023/10/13 14:06:23;;;;;;;19.63;7.85;;;;;;;23.13;55.33;100100.94;4881619;29;20586;-71
2023/10/13 14:08:56;;;;;;;19.60;7.78;;;;;;;23.12;56.21;100091.13;4881717;29;20173;-72
2023/10/13 14:14:28;;;;;;;39.65;8.60;;;;;;;23.13;53.56;100092.75;4881541;29;20191;-71
2023/10/13 14:17:07;;;;;;;30.15;8.55;;;;;;;23.16;53.83;100084.94;4881172;29;20217;-72
2023/10/13 14:19:40;;;;;;;23.95;7.95;;;;;;;23.11;54.14;100084.00;4881311;29;20548;-72
2023/10/13 14:22:06;;;;;;;26.02;7.07;;;;;;;23.08;54.28;100084.53;4880279;29;20181;-72
2023/10/13 14:24:35;;;;;;;25.23;7.68;;;;;;;23.07;53.78;100086.41;4880966;29;20192;-72
2023/10/13 14:27:11;;;;;;;41.85;7.88;;;;;;;22.98;55.24;100078.91;4881011;29;20303;-72
2023/10/13 14:29:44;;;;;;;21.40;8.13;;;;;;;22.93;54.46;100078.81;4881298;29;20181;-72
2023/10/13 14:32:15;;;;;;;35.17;8.23;;;;;;;22.96;54.44;100075.56;4881211;29;20571;-72
2023/10/13 14:34:48;;;;;;;24.80;7.97;;;;;;;22.97;53.64;100085.41;4880876;29;20661;-71
2023/10/13 14:37:26;;;;;;;38.75;8.90;;;;;;;22.86;54.08;100084.44;4881483;29;20182;-72
2023/10/13 14:39:57;;;;;;;32.17;8.07;;;;;;;22.87;53.80;100082.53;4881148;29;20276;-72
2023/10/13 14:42:25;;;;;;;33.50;7.93;;;;;;;22.83;54.55;100084.91;4881348;29;20192;-72
2023/10/13 14:44:58;;;;;;;21.63;7.22;;;;;;;22.80;54.49;100085.41;4880637;29;20196;-71
2023/10/13 14:47:25;;;;;;;36.88;7.85;;;;;;;22.77;54.53;100083.19;4880711;29;20182;-71
2023/10/13 14:49:59;;;;;;;24.58;8.32;;;;;;;22.74;54.77;100079.03;4880939;29;20197;-72
2023/10/13 14:52:26;;;;;;;27.05;7.22;;;;;;;22.68;54.03;100081.91;4880217;29;20536;-71
2023/10/13 14:54:56;;;;;;;26.70;8.68;;;;;;;22.67;53.95;100072.91;4880540;29;20277;-72
2023/10/13 14:57:24;;;;;;;31.77;6.72;;;;;;;22.74;54.05;100081.75;4880425;29;20231;-72
2023/10/13 14:59:54;;;;;;;26.00;7.65;;;;;;;22.73;54.25;100079.31;4881058;29;20193;-72
2023/10/13 15:02:21;;;;;;;31.23;7.88;;;;;;;22.70;53.60;100072.44;4880680;29;20193;-72
2023/10/13 15:04:49;;;;;;;25.63;6.85;;;;;;;22.70;54.28;100075.16;4880243;29;20194;-71